Local area metar reports


Our local metar:
KGOO 012110Z AUTO 00000G11KT 10SM FEW043 10/M03 A2993 RMK A01

Decoded:

station                        KGOO
observed_date Wed, 01 Apr 2020 21:10:00 +0000
observed_age 23 min. ago
wind_speed 0
wind_gust_speed 11
wind_direction 0
wind_direction_label N
visibility_report 10 miles
present_weather_report Dry
clouds_report A few at 4300 feet
cloud_height 4300
temperature_f 50
dew_point_f 27
humidity 40
barometer 29.93
remarks A01

Auburn metar:
KAUN 012115Z AUTO VRB03G12KT 10SM CLR 14/M01 A2995 RMK A01

Decoded:

station                        KAUN
observed_date Wed, 01 Apr 2020 21:15:00 +0000
observed_age 18 min. ago
wind_speed 3
wind_gust_speed 12
wind_direction_varies 1
visibility_report 10 miles
present_weather_report Dry
clouds_report Clear skies
temperature_f 57
dew_point_f 30
humidity 36
barometer 29.95
remarks A01

Lincoln metar:
KLHM 012115Z AUTO 32010KT 270V330 10SM CLR 17/M01 A2995 RMK AO1

Decoded:

station                        KLHM
observed_date Wed, 01 Apr 2020 21:15:00 +0000
observed_age 18 min. ago
wind_speed 10
wind_direction 320
wind_direction_label NW
varies_wind_min 270
varies_wind_min_label W
varies_wind_max 330
varies_wind_max_label NNW
visibility_report 10 miles
present_weather_report Dry
clouds_report Clear skies
temperature_f 63
dew_point_f 30
humidity 30
barometer 29.95
remarks AO1